sensor_id;sensor_type;location;lat;lon;timestamp;temperature;humidity
15483;DHT22;7843;50.330;7.312;2023-11-21T00:02:13;8.30;99.90
15483;DHT22;7843;50.330;7.312;2023-11-21T00:04:40;8.30;99.90
15483;DHT22;7843;50.330;7.312;2023-11-21T00:07:07;8.30;99.90
15483;DHT22;7843;50.330;7.312;2023-11-21T00:09:34;8.30;99.90
15483;DHT22;7843;50.330;7.312;2023-11-21T00:12:01;8.30;99.90
15483;DHT22;7843;50.330;7.312;2023-11-21T00:14:29;8.20;99.90
15483;DHT22;7843;50.330;7.312;2023-11-21T00:16:55;8.20;99.90
15483;DHT22;7843;50.330;7.312;2023-11-21T00:19:22;8.20;99.90
15483;DHT22;7843;50.330;7.312;2023-11-21T00:21:49;8.20;99.90
15483;DHT22;7843;50.330;7.312;2023-11-21T00:24:17;8.20;99.90
15483;DHT22;7843;50.330;7.312;2023-11-21T00:26:44;8.20;99.90
15483;DHT22;7843;50.330;7.312;2023-11-21T00:29:10;8.20;99.90
15483;DHT22;7843;50.330;7.312;2023-11-21T00:31:37;8.20;99.90
15483;DHT22;7843;50.330;7.312;2023-11-21T00:34:05;8.20;99.90
15483;DHT22;7843;50.330;7.312;2023-11-21T00:36:32;8.20;99.90
15483;DHT22;7843;50.330;7.312;2023-11-21T00:38:59;8.20;99.90
15483;DHT22;7843;50.330;7.312;2023-11-21T00:41:25;8.20;99.90
15483;DHT22;7843;50.330;7.312;2023-11-21T00:43:55;8.20;99.90
15483;DHT22;7843;50.330;7.312;2023-11-21T00:46:22;8.20;99.90
15483;DHT22;7843;50.330;7.312;2023-11-21T00:48:50;8.20;99.90
15483;DHT22;7843;50.330;7.312;2023-11-21T00:51:17;8.20;99.90
15483;DHT22;7843;50.330;7.312;2023-11-21T00:53:44;8.20;99.90
15483;DHT22;7843;50.330;7.312;2023-11-21T00:56:11;8.20;99.90
15483;DHT22;7843;50.330;7.312;2023-11-21T00:58:38;8.20;99.90
15483;DHT22;7843;50.330;7.312;2023-11-21T01:01:05;8.20;99.90
15483;DHT22;7843;50.330;7.312;2023-11-21T01:03:32;8.20;99.90
15483;DHT22;7843;50.330;7.312;2023-11-21T01:05:58;8.20;99.90
15483;DHT22;7843;50.330;7.312;2023-11-21T01:08:25;8.20;99.90
15483;DHT22;7843;50.330;7.312;2023-11-21T01:10:52;8.20;99.90
15483;DHT22;7843;50.330;7.312;2023-11-21T01:13:19;8.20;99.90
15483;DHT22;7843;50.330;7.312;2023-11-21T01:15:45;8.20;99.90
15483;DHT22;7843;50.330;7.312;2023-11-21T01:18:12;8.20;99.90
15483;DHT22;7843;50.330;7.312;2023-11-21T01:20:39;8.20;99.90
15483;DHT22;7843;50.330;7.312;2023-11-21T01:23:06;8.20;99.90
15483;DHT22;7843;50.330;7.312;2023-11-21T01:25:33;8.20;99.90
15483;DHT22;7843;50.330;7.312;2023-11-21T01:28:00;8.30;99.90
15483;DHT22;7843;50.330;7.312;2023-11-21T01:30:26;8.30;99.90
15483;DHT22;7843;50.330;7.312;2023-11-21T01:32:53;8.30;99.90
15483;DHT22;7843;50.330;7.312;2023-11-21T01:35:20;8.30;99.90
15483;DHT22;7843;50.330;7.312;2023-11-21T01:37:47;8.20;99.90
15483;DHT22;7843;50.330;7.312;2023-11-21T01:40:14;8.20;99.90
15483;DHT22;7843;50.330;7.312;2023-11-21T01:42:42;8.20;99.90
15483;DHT22;7843;50.330;7.312;2023-11-21T01:45:10;8.20;99.90
15483;DHT22;7843;50.330;7.312;2023-11-21T01:47:39;8.20;99.90
15483;DHT22;7843;50.330;7.312;2023-11-21T01:50:08;8.20;99.90
15483;DHT22;7843;50.330;7.312;2023-11-21T01:52:38;8.20;99.90
15483;DHT22;7843;50.330;7.312;2023-11-21T01:55:07;8.20;99.90
15483;DHT22;7843;50.330;7.312;2023-11-21T01:57:36;8.20;99.90
15483;DHT22;7843;50.330;7.312;2023-11-21T02:00:06;8.20;99.90
15483;DHT22;7843;50.330;7.312;2023-11-21T02:02:49;8.10;99.90
15483;DHT22;7843;50.330;7.312;2023-11-21T02:05:17;8.10;99.90
15483;DHT22;7843;50.330;7.312;2023-11-21T02:07:45;8.10;99.90
15483;DHT22;7843;50.330;7.312;2023-11-21T02:10:15;8.10;99.90
15483;DHT22;7843;50.330;7.312;2023-11-21T02:12:43;8.10;99.90
15483;DHT22;7843;50.330;7.312;2023-11-21T02:15:12;8.10;99.90
15483;DHT22;7843;50.330;7.312;2023-11-21T02:17:43;8.10;99.90
15483;DHT22;7843;50.330;7.312;2023-11-21T02:20:11;8.10;99.90
15483;DHT22;7843;50.330;7.312;2023-11-21T02:22:42;8.10;99.90
15483;DHT22;7843;50.330;7.312;2023-11-21T02:25:09;8.10;99.90
15483;DHT22;7843;50.330;7.312;2023-11-21T02:27:36;8.10;99.90
15483;DHT22;7843;50.330;7.312;2023-11-21T02:30:04;8.20;99.90
15483;DHT22;7843;50.330;7.312;2023-11-21T02:32:31;8.20;99.90
15483;DHT22;7843;50.330;7.312;2023-11-21T02:34:58;8.20;99.90
15483;DHT22;7843;50.330;7.312;2023-11-21T02:37:27;8.20;99.90
15483;DHT22;7843;50.330;7.312;2023-11-21T02:39:54;8.20;99.90
15483;DHT22;7843;50.330;7.312;2023-11-21T02:42:20;8.20;99.90
15483;DHT22;7843;50.330;7.312;2023-11-21T02:44:47;8.20;99.90
15483;DHT22;7843;50.330;7.312;2023-11-21T02:47:14;8.20;99.90
15483;DHT22;7843;50.330;7.312;2023-11-21T02:49:41;8.20;99.90
15483;DHT22;7843;50.330;7.312;2023-11-21T02:52:07;8.20;99.90
15483;DHT22;7843;50.330;7.312;2023-11-21T02:54:35;8.20;99.90
15483;DHT22;7843;50.330;7.312;2023-11-21T02:57:03;8.10;99.90
15483;DHT22;7843;50.330;7.312;2023-11-21T02:59:29;8.10;99.90
15483;DHT22;7843;50.330;7.312;2023-11-21T03:01:56;8.10;99.90
15483;DHT22;7843;50.330;7.312;2023-11-21T03:04:23;8.10;99.90
15483;DHT22;7843;50.330;7.312;2023-11-21T03:06:50;8.10;99.90
15483;DHT22;7843;50.330;7.312;2023-11-21T03:09:17;8.10;99.90
15483;DHT22;7843;50.330;7.312;2023-11-21T03:11:44;8.20;99.90
15483;DHT22;7843;50.330;7.312;2023-11-21T03:14:10;8.20;99.90
15483;DHT22;7843;50.330;7.312;2023-11-21T03:16:37;8.20;99.90
15483;DHT22;7843;50.330;7.312;2023-11-21T03:19:04;8.20;99.90
15483;DHT22;7843;50.330;7.312;2023-11-21T03:21:31;8.20;99.90
15483;DHT22;7843;50.330;7.312;2023-11-21T03:23:58;8.20;99.90
15483;DHT22;7843;50.330;7.312;2023-11-21T03:26:26;8.20;99.90
15483;DHT22;7843;50.330;7.312;2023-11-21T03:28:53;8.20;99.90
15483;DHT22;7843;50.330;7.312;2023-11-21T03:31:20;8.20;99.90
15483;DHT22;7843;50.330;7.312;2023-11-21T03:33:47;8.20;99.90
15483;DHT22;7843;50.330;7.312;2023-11-21T03:36:14;8.20;99.90
15483;DHT22;7843;50.330;7.312;2023-11-21T03:38:44;8.20;99.90
15483;DHT22;7843;50.330;7.312;2023-11-21T03:41:11;8.20;99.90
15483;DHT22;7843;50.330;7.312;2023-11-21T03:43:38;8.20;99.90
15483;DHT22;7843;50.330;7.312;2023-11-21T03:46:04;8.20;99.90
15483;DHT22;7843;50.330;7.312;2023-11-21T03:48:31;8.20;99.90
15483;DHT22;7843;50.330;7.312;2023-11-21T03:51:02;8.20;99.90
15483;DHT22;7843;50.330;7.312;2023-11-21T03:53:29;8.20;99.90
15483;DHT22;7843;50.330;7.312;2023-11-21T03:55:57;8.20;99.90
15483;DHT22;7843;50.330;7.312;2023-11-21T03:58:24;8.20;99.90
15483;DHT22;7843;50.330;7.312;2023-11-21T04:00:50;8.10;99.90
15483;DHT22;7843;50.330;7.312;2023-11-21T04:03:17;8.10;99.90
15483;DHT22;7843;50.330;7.312;2023-11-21T04:05:44;8.10;99.90
15483;DHT22;7843;50.330;7.312;2023-11-21T04:08:12;8.20;99.90
15483;DHT22;7843;50.330;7.312;2023-11-21T04:10:39;8.20;99.90
15483;DHT22;7843;50.330;7.312;2023-11-21T04:13:06;8.20;99.90
15483;DHT22;7843;50.330;7.312;2023-11-21T04:15:33;8.20;99.90
15483;DHT22;7843;50.330;7.312;2023-11-21T04:18:00;8.20;99.90
15483;DHT22;7843;50.330;7.312;2023-11-21T04:20:26;8.20;99.90
15483;DHT22;7843;50.330;7.312;2023-11-21T04:22:53;8.20;99.90
15483;DHT22;7843;50.330;7.312;2023-11-21T04:25:20;8.10;99.90
15483;DHT22;7843;50.330;7.312;2023-11-21T04:27:47;8.20;99.90
15483;DHT22;7843;50.330;7.312;2023-11-21T04:30:14;8.20;99.90
15483;DHT22;7843;50.330;7.312;2023-11-21T04:32:41;8.20;99.90
15483;DHT22;7843;50.330;7.312;2023-11-21T04:35:11;8.20;99.90
15483;DHT22;7843;50.330;7.312;2023-11-21T04:37:38;8.20;99.90
15483;DHT22;7843;50.330;7.312;2023-11-21T04:40:05;8.20;99.90
15483;DHT22;7843;50.330;7.312;2023-11-21T04:42:35;8.20;99.90
15483;DHT22;7843;50.330;7.312;2023-11-21T04:45:04;8.20;99.90
15483;DHT22;7843;50.330;7.312;2023-11-21T04:47:35;8.20;99.90
15483;DHT22;7843;50.330;7.312;2023-11-21T04:50:02;8.10;99.90
15483;DHT22;7843;50.330;7.312;2023-11-21T04:52:30;8.20;99.90
15483;DHT22;7843;50.330;7.312;2023-11-21T04:54:56;8.10;99.90
15483;DHT22;7843;50.330;7.312;2023-11-21T04:57:25;8.10;99.90
15483;DHT22;7843;50.330;7.312;2023-11-21T04:59:51;8.00;99.90
15483;DHT22;7843;50.330;7.312;2023-11-21T05:02:18;8.00;99.90
15483;DHT22;7843;50.330;7.312;2023-11-21T05:04:49;8.00;99.90
15483;DHT22;7843;50.330;7.312;2023-11-21T05:07:15;7.90;99.90
15483;DHT22;7843;50.330;7.312;2023-11-21T05:09:43;8.00;99.90
15483;DHT22;7843;50.330;7.312;2023-11-21T05:12:13;7.90;99.90
15483;DHT22;7843;50.330;7.312;2023-11-21T05:14:40;7.90;99.90
15483;DHT22;7843;50.330;7.312;2023-11-21T05:17:08;8.00;99.90
15483;DHT22;7843;50.330;7.312;2023-11-21T05:19:35;7.90;99.90
15483;DHT22;7843;50.330;7.312;2023-11-21T05:22:02;8.00;99.90
15483;DHT22;7843;50.330;7.312;2023-11-21T05:24:29;8.00;99.90
15483;DHT22;7843;50.330;7.312;2023-11-21T05:26:55;8.00;99.90
15483;DHT22;7843;50.330;7.312;2023-11-21T05:29:22;8.00;99.90
15483;DHT22;7843;50.330;7.312;2023-11-21T05:31:49;8.00;99.90
15483;DHT22;7843;50.330;7.312;2023-11-21T05:34:16;8.00;99.90
15483;DHT22;7843;50.330;7.312;2023-11-21T05:36:44;8.00;99.90
15483;DHT22;7843;50.330;7.312;2023-11-21T05:39:12;8.00;99.90
15483;DHT22;7843;50.330;7.312;2023-11-21T05:41:39;8.00;99.90
15483;DHT22;7843;50.330;7.312;2023-11-21T05:44:08;8.00;99.90
15483;DHT22;7843;50.330;7.312;2023-11-21T05:46:35;8.00;99.90
15483;DHT22;7843;50.330;7.312;2023-11-21T05:49:02;8.10;99.90
15483;DHT22;7843;50.330;7.312;2023-11-21T05:51:29;8.10;99.90
15483;DHT22;7843;50.330;7.312;2023-11-21T05:53:56;8.10;99.90
15483;DHT22;7843;50.330;7.312;2023-11-21T05:56:23;8.00;99.90
15483;DHT22;7843;50.330;7.312;2023-11-21T05:58:49;8.10;99.90
15483;DHT22;7843;50.330;7.312;2023-11-21T06:01:17;8.00;99.90
15483;DHT22;7843;50.330;7.312;2023-11-21T06:03:44;8.10;99.90
15483;DHT22;7843;50.330;7.312;2023-11-21T06:06:12;8.00;99.90
15483;DHT22;7843;50.330;7.312;2023-11-21T06:08:39;8.00;99.90
15483;DHT22;7843;50.330;7.312;2023-11-21T06:11:05;8.00;99.90
15483;DHT22;7843;50.330;7.312;2023-11-21T06:13:32;8.00;99.90
15483;DHT22;7843;50.330;7.312;2023-11-21T06:15:59;8.10;99.90
15483;DHT22;7843;50.330;7.312;2023-11-21T06:18:26;8.10;99.90
15483;DHT22;7843;50.330;7.312;2023-11-21T06:20:53;8.10;99.90
15483;DHT22;7843;50.330;7.312;2023-11-21T06:23:20;8.00;99.90
15483;DHT22;7843;50.330;7.312;2023-11-21T06:25:47;8.00;99.90
15483;DHT22;7843;50.330;7.312;2023-11-21T06:28:14;8.00;99.90
15483;DHT22;7843;50.330;7.312;2023-11-21T06:30:44;8.00;99.90
15483;DHT22;7843;50.330;7.312;2023-11-21T06:33:11;8.00;99.90
15483;DHT22;7843;50.330;7.312;2023-11-21T06:35:38;8.00;99.90
15483;DHT22;7843;50.330;7.312;2023-11-21T06:38:05;8.00;99.90
15483;DHT22;7843;50.330;7.312;2023-11-21T06:40:32;8.00;99.90
15483;DHT22;7843;50.330;7.312;2023-11-21T06:43:00;8.00;99.90
15483;DHT22;7843;50.330;7.312;2023-11-21T06:45:27;8.00;99.90
15483;DHT22;7843;50.330;7.312;2023-11-21T06:47:53;8.00;99.90
15483;DHT22;7843;50.330;7.312;2023-11-21T06:50:20;8.00;99.90
15483;DHT22;7843;50.330;7.312;2023-11-21T06:52:47;8.00;99.90
15483;DHT22;7843;50.330;7.312;2023-11-21T06:55:15;8.00;99.90
15483;DHT22;7843;50.330;7.312;2023-11-21T06:57:42;8.00;99.90
15483;DHT22;7843;50.330;7.312;2023-11-21T07:00:10;8.00;99.90
15483;DHT22;7843;50.330;7.312;2023-11-21T07:02:38;8.00;99.90
15483;DHT22;7843;50.330;7.312;2023-11-21T07:05:05;8.00;99.90
15483;DHT22;7843;50.330;7.312;2023-11-21T07:07:32;8.00;99.90
15483;DHT22;7843;50.330;7.312;2023-11-21T07:10:02;8.00;99.90
15483;DHT22;7843;50.330;7.312;2023-11-21T07:12:31;8.00;99.90
15483;DHT22;7843;50.330;7.312;2023-11-21T07:14:58;8.00;99.90
15483;DHT22;7843;50.330;7.312;2023-11-21T07:17:24;8.00;99.90
15483;DHT22;7843;50.330;7.312;2023-11-21T07:19:51;8.00;99.90
15483;DHT22;7843;50.330;7.312;2023-11-21T07:22:18;8.00;99.90
15483;DHT22;7843;50.330;7.312;2023-11-21T07:24:48;8.00;99.90
15483;DHT22;7843;50.330;7.312;2023-11-21T07:27:17;8.00;99.90
15483;DHT22;7843;50.330;7.312;2023-11-21T07:29:45;8.00;99.90
15483;DHT22;7843;50.330;7.312;2023-11-21T07:32:11;8.00;99.90
15483;DHT22;7843;50.330;7.312;2023-11-21T07:34:39;8.10;99.90
15483;DHT22;7843;50.330;7.312;2023-11-21T07:37:06;8.10;99.90
15483;DHT22;7843;50.330;7.312;2023-11-21T07:39:33;8.10;99.90
15483;DHT22;7843;50.330;7.312;2023-11-21T07:41:59;8.10;99.90
15483;DHT22;7843;50.330;7.312;2023-11-21T07:44:26;8.10;99.90
15483;DHT22;7843;50.330;7.312;2023-11-21T07:46:53;8.10;99.90
15483;DHT22;7843;50.330;7.312;2023-11-21T07:49:24;8.20;99.90
15483;DHT22;7843;50.330;7.312;2023-11-21T07:51:51;8.20;99.90
15483;DHT22;7843;50.330;7.312;2023-11-21T07:54:18;8.20;99.90
15483;DHT22;7843;50.330;7.312;2023-11-21T07:56:45;8.20;99.90
15483;DHT22;7843;50.330;7.312;2023-11-21T07:59:12;8.20;99.90
15483;DHT22;7843;50.330;7.312;2023-11-21T08:01:39;8.20;99.90
15483;DHT22;7843;50.330;7.312;2023-11-21T08:04:07;8.30;99.90
15483;DHT22;7843;50.330;7.312;2023-11-21T08:06:34;8.20;99.90
15483;DHT22;7843;50.330;7.312;2023-11-21T08:09:01;8.30;99.90
15483;DHT22;7843;50.330;7.312;2023-11-21T08:11:28;8.30;99.90
15483;DHT22;7843;50.330;7.312;2023-11-21T08:13:58;8.40;99.90
15483;DHT22;7843;50.330;7.312;2023-11-21T08:16:25;8.40;99.90
15483;DHT22;7843;50.330;7.312;2023-11-21T08:18:52;8.40;99.90
15483;DHT22;7843;50.330;7.312;2023-11-21T08:21:19;8.40;99.90
15483;DHT22;7843;50.330;7.312;2023-11-21T08:23:46;8.40;99.90
15483;DHT22;7843;50.330;7.312;2023-11-21T08:26:16;8.40;99.90
15483;DHT22;7843;50.330;7.312;2023-11-21T08:28:43;8.40;99.90
15483;DHT22;7843;50.330;7.312;2023-11-21T08:31:10;8.40;99.90
15483;DHT22;7843;50.330;7.312;2023-11-21T08:33:38;8.50;99.90
15483;DHT22;7843;50.330;7.312;2023-11-21T08:36:09;8.50;99.90
15483;DHT22;7843;50.330;7.312;2023-11-21T08:38:36;8.50;99.90
15483;DHT22;7843;50.330;7.312;2023-11-21T08:41:06;8.60;99.90
15483;DHT22;7843;50.330;7.312;2023-11-21T08:43:36;8.60;99.90
15483;DHT22;7843;50.330;7.312;2023-11-21T08:46:06;8.60;99.90
15483;DHT22;7843;50.330;7.312;2023-11-21T08:48:38;8.60;99.90
15483;DHT22;7843;50.330;7.312;2023-11-21T08:51:05;8.70;99.90
15483;DHT22;7843;50.330;7.312;2023-11-21T08:53:32;8.70;99.90
15483;DHT22;7843;50.330;7.312;2023-11-21T08:55:59;8.70;99.90
15483;DHT22;7843;50.330;7.312;2023-11-21T08:58:27;8.70;99.90
15483;DHT22;7843;50.330;7.312;2023-11-21T09:00:53;8.70;99.90
15483;DHT22;7843;50.330;7.312;2023-11-21T09:03:20;8.70;99.90
15483;DHT22;7843;50.330;7.312;2023-11-21T09:05:47;8.80;99.90
15483;DHT22;7843;50.330;7.312;2023-11-21T09:08:14;8.80;99.90
15483;DHT22;7843;50.330;7.312;2023-11-21T09:10:40;8.80;99.90
15483;DHT22;7843;50.330;7.312;2023-11-21T09:13:09;8.90;99.90
15483;DHT22;7843;50.330;7.312;2023-11-21T09:15:36;8.90;99.90
15483;DHT22;7843;50.330;7.312;2023-11-21T09:18:03;8.80;99.90
15483;DHT22;7843;50.330;7.312;2023-11-21T09:20:31;8.70;99.90
15483;DHT22;7843;50.330;7.312;2023-11-21T09:22:58;8.70;99.90
15483;DHT22;7843;50.330;7.312;2023-11-21T09:25:25;8.70;99.90
15483;DHT22;7843;50.330;7.312;2023-11-21T09:27:52;8.70;99.90
15483;DHT22;7843;50.330;7.312;2023-11-21T09:30:18;8.70;99.90
15483;DHT22;7843;50.330;7.312;2023-11-21T09:32:46;8.70;99.90
15483;DHT22;7843;50.330;7.312;2023-11-21T09:35:13;8.90;99.90
15483;DHT22;7843;50.330;7.312;2023-11-21T09:37:41;9.20;99.90
15483;DHT22;7843;50.330;7.312;2023-11-21T09:40:10;9.40;99.90
15483;DHT22;7843;50.330;7.312;2023-11-21T09:42:46;9.60;99.90
15483;DHT22;7843;50.330;7.312;2023-11-21T09:45:26;9.70;99.90
15483;DHT22;7843;50.330;7.312;2023-11-21T09:47:55;9.80;99.90
15483;DHT22;7843;50.330;7.312;2023-11-21T09:50:23;9.70;99.90
15483;DHT22;7843;50.330;7.312;2023-11-21T09:55:34;9.60;99.90
15483;DHT22;7843;50.330;7.312;2023-11-21T09:58:03;9.60;99.90
15483;DHT22;7843;50.330;7.312;2023-11-21T10:00:32;9.50;99.90
15483;DHT22;7843;50.330;7.312;2023-11-21T10:02:59;9.50;99.90
15483;DHT22;7843;50.330;7.312;2023-11-21T10:05:26;9.60;99.90
15483;DHT22;7843;50.330;7.312;2023-11-21T10:07:56;9.60;99.90
15483;DHT22;7843;50.330;7.312;2023-11-21T10:10:24;9.70;99.90
15483;DHT22;7843;50.330;7.312;2023-11-21T10:12:56;9.80;99.90
15483;DHT22;7843;50.330;7.312;2023-11-21T10:15:23;9.90;99.90
15483;DHT22;7843;50.330;7.312;2023-11-21T10:17:55;10.00;99.90
15483;DHT22;7843;50.330;7.312;2023-11-21T10:20:23;10.10;99.90
15483;DHT22;7843;50.330;7.312;2023-11-21T10:22:51;10.10;99.90
15483;DHT22;7843;50.330;7.312;2023-11-21T10:25:17;10.10;99.90
15483;DHT22;7843;50.330;7.312;2023-11-21T10:27:48;10.10;99.90
15483;DHT22;7843;50.330;7.312;2023-11-21T10:30:18;10.10;99.90
15483;DHT22;7843;50.330;7.312;2023-11-21T10:32:45;10.20;99.90
15483;DHT22;7843;50.330;7.312;2023-11-21T10:35:12;10.20;99.90
15483;DHT22;7843;50.330;7.312;2023-11-21T10:37:39;10.20;99.90
15483;DHT22;7843;50.330;7.312;2023-11-21T10:40:07;10.20;99.90
15483;DHT22;7843;50.330;7.312;2023-11-21T10:42:41;10.10;99.90
15483;DHT22;7843;50.330;7.312;2023-11-21T10:45:08;10.10;99.90
15483;DHT22;7843;50.330;7.312;2023-11-21T10:47:42;10.00;99.90
15483;DHT22;7843;50.330;7.312;2023-11-21T10:50:09;10.10;99.90
15483;DHT22;7843;50.330;7.312;2023-11-21T10:52:39;10.00;99.90
15483;DHT22;7843;50.330;7.312;2023-11-21T10:55:16;10.10;99.90
15483;DHT22;7843;50.330;7.312;2023-11-21T10:57:46;10.10;99.90
15483;DHT22;7843;50.330;7.312;2023-11-21T11:00:16;10.10;99.90
15483;DHT22;7843;50.330;7.312;2023-11-21T11:02:43;10.10;99.90
15483;DHT22;7843;50.330;7.312;2023-11-21T11:05:10;10.10;99.90
15483;DHT22;7843;50.330;7.312;2023-11-21T11:07:40;10.20;99.90
15483;DHT22;7843;50.330;7.312;2023-11-21T11:10:09;10.30;99.90
15483;DHT22;7843;50.330;7.312;2023-11-21T11:12:41;10.30;99.90
15483;DHT22;7843;50.330;7.312;2023-11-21T11:15:08;10.30;99.90
15483;DHT22;7843;50.330;7.312;2023-11-21T11:17:38;10.40;99.90
15483;DHT22;7843;50.330;7.312;2023-11-21T11:20:06;10.40;99.90
15483;DHT22;7843;50.330;7.312;2023-11-21T11:28:08;10.40;99.90
15483;DHT22;7843;50.330;7.312;2023-11-21T11:33:48;10.40;99.90
15483;DHT22;7843;50.330;7.312;2023-11-21T11:36:25;10.50;99.90
15483;DHT22;7843;50.330;7.312;2023-11-21T11:38:53;10.50;99.90
15483;DHT22;7843;50.330;7.312;2023-11-21T11:41:27;10.50;99.90
15483;DHT22;7843;50.330;7.312;2023-11-21T11:43:54;10.50;99.90
15483;DHT22;7843;50.330;7.312;2023-11-21T11:46:40;10.50;99.90
15483;DHT22;7843;50.330;7.312;2023-11-21T11:49:08;10.60;99.90
15483;DHT22;7843;50.330;7.312;2023-11-21T11:51:35;10.60;99.90
15483;DHT22;7843;50.330;7.312;2023-11-21T11:54:02;10.70;99.90
15483;DHT22;7843;50.330;7.312;2023-11-21T11:56:33;10.70;99.90
15483;DHT22;7843;50.330;7.312;2023-11-21T11:59:02;10.70;99.90
15483;DHT22;7843;50.330;7.312;2023-11-21T12:01:32;10.60;99.90
15483;DHT22;7843;50.330;7.312;2023-11-21T12:06:41;10.50;99.90
15483;DHT22;7843;50.330;7.312;2023-11-21T12:09:24;10.50;99.90
15483;DHT22;7843;50.330;7.312;2023-11-21T12:11:53;10.50;99.90
15483;DHT22;7843;50.330;7.312;2023-11-21T12:14:21;10.40;99.90
15483;DHT22;7843;50.330;7.312;2023-11-21T12:16:49;10.30;99.90
15483;DHT22;7843;50.330;7.312;2023-11-21T12:19:16;10.40;99.90
15483;DHT22;7843;50.330;7.312;2023-11-21T12:21:43;10.40;99.90
15483;DHT22;7843;50.330;7.312;2023-11-21T12:24:10;10.50;99.90
15483;DHT22;7843;50.330;7.312;2023-11-21T12:26:40;10.50;99.90
15483;DHT22;7843;50.330;7.312;2023-11-21T12:29:07;10.50;99.90
15483;DHT22;7843;50.330;7.312;2023-11-21T12:31:37;10.50;99.90
15483;DHT22;7843;50.330;7.312;2023-11-21T12:34:04;10.60;99.90
15483;DHT22;7843;50.330;7.312;2023-11-21T12:36:33;10.70;99.90
15483;DHT22;7843;50.330;7.312;2023-11-21T12:39:01;10.80;99.90
15483;DHT22;7843;50.330;7.312;2023-11-21T12:41:29;10.80;99.90
15483;DHT22;7843;50.330;7.312;2023-11-21T12:43:57;10.90;99.90
15483;DHT22;7843;50.330;7.312;2023-11-21T12:46:25;10.90;99.90
15483;DHT22;7843;50.330;7.312;2023-11-21T12:48:56;10.90;99.90
15483;DHT22;7843;50.330;7.312;2023-11-21T12:51:24;10.90;99.90
15483;DHT22;7843;50.330;7.312;2023-11-21T12:53:51;10.80;99.90
15483;DHT22;7843;50.330;7.312;2023-11-21T12:56:21;10.70;99.90
15483;DHT22;7843;50.330;7.312;2023-11-21T12:58:50;10.70;99.90
15483;DHT22;7843;50.330;7.312;2023-11-21T13:01:18;10.50;99.90
15483;DHT22;7843;50.330;7.312;2023-11-21T13:03:49;10.30;99.90
15483;DHT22;7843;50.330;7.312;2023-11-21T13:06:18;10.20;99.90
15483;DHT22;7843;50.330;7.312;2023-11-21T13:08:46;10.10;99.90
15483;DHT22;7843;50.330;7.312;2023-11-21T13:11:13;10.10;99.90
15483;DHT22;7843;50.330;7.312;2023-11-21T13:13:41;10.10;99.90
15483;DHT22;7843;50.330;7.312;2023-11-21T13:16:11;10.10;99.90
15483;DHT22;7843;50.330;7.312;2023-11-21T13:18:39;10.10;99.90
15483;DHT22;7843;50.330;7.312;2023-11-21T13:21:08;10.10;99.90
15483;DHT22;7843;50.330;7.312;2023-11-21T13:23:44;10.10;99.90
15483;DHT22;7843;50.330;7.312;2023-11-21T13:26:12;10.10;99.90
15483;DHT22;7843;50.330;7.312;2023-11-21T13:28:41;10.20;99.90
15483;DHT22;7843;50.330;7.312;2023-11-21T13:31:12;10.10;99.90
15483;DHT22;7843;50.330;7.312;2023-11-21T13:33:48;10.10;99.90
15483;DHT22;7843;50.330;7.312;2023-11-21T13:36:23;10.10;99.90
15483;DHT22;7843;50.330;7.312;2023-11-21T13:38:51;10.10;99.90
15483;DHT22;7843;50.330;7.312;2023-11-21T13:41:19;10.00;99.90
15483;DHT22;7843;50.330;7.312;2023-11-21T13:43:46;10.00;99.90
15483;DHT22;7843;50.330;7.312;2023-11-21T13:46:20;9.90;99.90
15483;DHT22;7843;50.330;7.312;2023-11-21T13:48:49;9.90;99.90
15483;DHT22;7843;50.330;7.312;2023-11-21T13:51:22;9.90;99.90
15483;DHT22;7843;50.330;7.312;2023-11-21T13:53:57;9.90;99.90
15483;DHT22;7843;50.330;7.312;2023-11-21T13:56:25;9.90;99.90
15483;DHT22;7843;50.330;7.312;2023-11-21T13:58:54;9.80;99.90
15483;DHT22;7843;50.330;7.312;2023-11-21T14:01:24;9.80;99.90
15483;DHT22;7843;50.330;7.312;2023-11-21T14:04:02;9.80;99.90
15483;DHT22;7843;50.330;7.312;2023-11-21T14:06:50;9.70;99.90
15483;DHT22;7843;50.330;7.312;2023-11-21T14:09:21;9.70;99.90
15483;DHT22;7843;50.330;7.312;2023-11-21T14:11:59;9.70;99.90
15483;DHT22;7843;50.330;7.312;2023-11-21T14:14:27;9.60;99.90
15483;DHT22;7843;50.330;7.312;2023-11-21T14:16:55;9.60;99.90
15483;DHT22;7843;50.330;7.312;2023-11-21T14:19:25;9.60;99.90
15483;DHT22;7843;50.330;7.312;2023-11-21T14:21:58;9.50;99.90
15483;DHT22;7843;50.330;7.312;2023-11-21T14:24:24;9.50;99.90
15483;DHT22;7843;50.330;7.312;2023-11-21T14:26:52;9.50;99.90
15483;DHT22;7843;50.330;7.312;2023-11-21T14:29:19;9.50;99.90
15483;DHT22;7843;50.330;7.312;2023-11-21T14:31:47;9.40;99.90
15483;DHT22;7843;50.330;7.312;2023-11-21T14:34:14;9.40;99.90
15483;DHT22;7843;50.330;7.312;2023-11-21T14:36:43;9.50;99.90
15483;DHT22;7843;50.330;7.312;2023-11-21T14:39:11;9.40;99.90
15483;DHT22;7843;50.330;7.312;2023-11-21T14:41:50;9.50;99.90
15483;DHT22;7843;50.330;7.312;2023-11-21T14:44:17;9.50;99.90
15483;DHT22;7843;50.330;7.312;2023-11-21T14:46:43;9.50;99.90
15483;DHT22;7843;50.330;7.312;2023-11-21T14:49:13;9.40;99.90
15483;DHT22;7843;50.330;7.312;2023-11-21T14:51:53;9.40;99.90
15483;DHT22;7843;50.330;7.312;2023-11-21T14:54:30;9.40;99.90
15483;DHT22;7843;50.330;7.312;2023-11-21T14:57:13;9.30;99.90
15483;DHT22;7843;50.330;7.312;2023-11-21T14:59:47;9.30;99.90
15483;DHT22;7843;50.330;7.312;2023-11-21T15:02:15;9.30;99.90
15483;DHT22;7843;50.330;7.312;2023-11-21T15:04:43;9.30;99.90
15483;DHT22;7843;50.330;7.312;2023-11-21T15:07:11;9.30;99.90
15483;DHT22;7843;50.330;7.312;2023-11-21T15:09:38;9.30;99.90
15483;DHT22;7843;50.330;7.312;2023-11-21T15:12:09;9.30;99.90
15483;DHT22;7843;50.330;7.312;2023-11-21T15:14:47;9.30;99.90
15483;DHT22;7843;50.330;7.312;2023-11-21T15:17:16;9.20;99.90
15483;DHT22;7843;50.330;7.312;2023-11-21T15:19:53;9.20;99.90
15483;DHT22;7843;50.330;7.312;2023-11-21T15:22:20;9.20;99.90
15483;DHT22;7843;50.330;7.312;2023-11-21T15:24:48;9.20;99.90
15483;DHT22;7843;50.330;7.312;2023-11-21T15:27:17;9.20;99.90
15483;DHT22;7843;50.330;7.312;2023-11-21T15:29:44;9.10;99.90
15483;DHT22;7843;50.330;7.312;2023-11-21T15:32:11;9.20;99.90
15483;DHT22;7843;50.330;7.312;2023-11-21T15:34:38;9.20;99.90
15483;DHT22;7843;50.330;7.312;2023-11-21T15:37:07;9.20;99.90
15483;DHT22;7843;50.330;7.312;2023-11-21T15:39:38;9.20;99.90
15483;DHT22;7843;50.330;7.312;2023-11-21T15:42:05;9.10;99.90
15483;DHT22;7843;50.330;7.312;2023-11-21T15:44:34;9.10;99.90
15483;DHT22;7843;50.330;7.312;2023-11-21T15:47:00;9.10;99.90
15483;DHT22;7843;50.330;7.312;2023-11-21T15:49:33;9.10;99.90
15483;DHT22;7843;50.330;7.312;2023-11-21T15:52:05;9.10;99.90
15483;DHT22;7843;50.330;7.312;2023-11-21T15:54:33;9.10;99.90
15483;DHT22;7843;50.330;7.312;2023-11-21T15:57:01;9.00;99.90
15483;DHT22;7843;50.330;7.312;2023-11-21T15:59:30;9.00;99.90
15483;DHT22;7843;50.330;7.312;2023-11-21T16:01:58;9.00;99.90
15483;DHT22;7843;50.330;7.312;2023-11-21T16:04:25;9.00;99.90
15483;DHT22;7843;50.330;7.312;2023-11-21T16:06:55;9.00;99.90
15483;DHT22;7843;50.330;7.312;2023-11-21T16:09:22;9.00;99.90
15483;DHT22;7843;50.330;7.312;2023-11-21T16:11:52;9.00;99.90
15483;DHT22;7843;50.330;7.312;2023-11-21T16:14:24;9.00;99.90
15483;DHT22;7843;50.330;7.312;2023-11-21T16:16:56;9.00;99.90
15483;DHT22;7843;50.330;7.312;2023-11-21T16:19:24;9.00;99.90
15483;DHT22;7843;50.330;7.312;2023-11-21T16:21:51;9.00;99.90